Valley, Washington
Current Conditions -  °F | °C
As of 3:37 AM on Wednesday 26 Nov 2014 (Local Time) from KDEW Reporting Station
Haze Haze  
Wind Chill:   Ceiling: 1400
Heat Index:   Visibility: 2.5mi
Dew Point:   Wind: 0mph
Humidity: 96%   Direction: NA
Pressure: 30.16"   Gusts: NA
Location:  48.17°N, 117.73°W
Report Text: KDEW 261137Z AUTO 00000KT 2 1/2SM BR OVC014 01/00 A3016 RMK AO2 T00060000
Loading
Personal Weather Stations






























Interactive Weather Map New forecast layout! Learn more

10-Day Weather Forecast

Advertisements
Track Severe Weather on mobile